Time;durP1;ratioP1;P1;durP2;ratioP2;P2;SDS_P1;SDS_P2;PMS_P1;PMS_P2;Temp;Humidity;BMP_temperature;BMP_pressure;BME280_temperature;BME280_humidity;BME280_pressure;Samples;Min_cycle;Max_cycle;Signal;HPM_P1;HPM_P2
2023/12/09 00:02:42;;;;;;;116.37;43.50;;;;;;;;;;10487733;28;20474;-82
2023/12/09 00:07:43;;;;;;;118.40;45.27;;;;;;;;;;10495113;28;20119;-83
2023/12/09 00:12:44;;;;;;;157.23;49.60;;;;;;;;;;10485328;28;20025;-82
2023/12/09 00:17:45;;;;;;;131.23;45.33;;;;;;;;;;10468418;28;20119;-82
2023/12/09 00:22:46;;;;;;;128.60;45.13;;;;;;;;;;10495944;28;20509;-82
2023/12/09 00:27:47;;;;;;;141.27;45.90;;;;;;;;;;10488165;28;20392;-82
2023/12/09 00:32:49;;;;;;;141.00;49.83;;;;;;;;;;10498431;28;20077;-82
2023/12/09 00:37:50;;;;;;;145.47;48.10;;;;;;;;;;10490044;28;20198;-83
2023/12/09 00:42:51;;;;;;;137.97;47.40;;;;;;;;;;10493024;28;20048;-82
2023/12/09 00:47:52;;;;;;;119.03;44.53;;;;;;;;;;10493937;28;20040;-82
2023/12/09 00:52:53;;;;;;;130.50;48.43;;;;;;;;;;10494660;28;20028;-83
2023/12/09 00:57:54;;;;;;;128.27;45.57;;;;;;;;;;10493801;28;20033;-82
2023/12/09 01:02:55;;;;;;;120.60;45.97;;;;;;;;;;10490163;28;20123;-82
2023/12/09 01:07:56;;;;;;;120.03;45.83;;;;;;;;;;10496448;28;20036;-82
2023/12/09 01:12:57;;;;;;;119.67;42.60;;;;;;;;;;10484539;28;20491;-81
2023/12/09 01:17:59;;;;;;;117.33;42.97;;;;;;;;;;10482735;28;20032;-82
2023/12/09 01:23:00;;;;;;;118.77;44.23;;;;;;;;;;10492252;28;20145;-83
2023/12/09 01:28:01;;;;;;;119.63;44.50;;;;;;;;;;10466503;28;20143;-82
2023/12/09 01:33:02;;;;;;;112.23;44.60;;;;;;;;;;10480911;28;20025;-82
2023/12/09 01:38:03;;;;;;;120.27;45.10;;;;;;;;;;10454853;28;20556;-82
2023/12/09 01:43:09;;;;;;;104.07;40.07;;;;;;;;;;10451448;28;20032;-82
2023/12/09 01:48:10;;;;;;;107.97;44.10;;;;;;;;;;10464289;28;20031;-82
2023/12/09 01:53:11;;;;;;;118.63;42.87;;;;;;;;;;10467711;28;20480;-82
2023/12/09 01:58:12;;;;;;;111.30;42.37;;;;;;;;;;10461092;28;20112;-82
2023/12/09 02:03:13;;;;;;;116.27;41.33;;;;;;;;;;10472379;28;20123;-82
2023/12/09 02:08:14;;;;;;;113.23;43.27;;;;;;;;;;10445296;28;20491;-82
2023/12/09 02:13:21;;;;;;;108.97;41.03;;;;;;;;;;10443111;28;20381;-82
2023/12/09 02:18:29;;;;;;;105.33;42.03;;;;;;;;;;10456284;28;20029;-82
2023/12/09 02:23:30;;;;;;;109.77;38.20;;;;;;;;;;10464862;28;20037;-82
2023/12/09 02:28:32;;;;;;;109.27;40.73;;;;;;;;;;10456287;28;20140;-82
2023/12/09 02:33:34;;;;;;;111.13;40.30;;;;;;;;;;10463448;28;20043;-82
2023/12/09 02:38:37;;;;;;;100.97;40.07;;;;;;;;;;10476409;28;20032;-82
2023/12/09 02:43:46;;;;;;;110.93;40.13;;;;;;;;;;10448943;28;20037;-82
2023/12/09 02:48:47;;;;;;;101.83;41.30;;;;;;;;;;10474829;28;20436;-82
2023/12/09 02:53:48;;;;;;;97.30;38.17;;;;;;;;;;10472287;28;20020;-82
2023/12/09 02:58:49;;;;;;;97.10;39.17;;;;;;;;;;10441446;28;20037;-82
2023/12/09 03:03:50;;;;;;;104.27;40.87;;;;;;;;;;10460771;28;20037;-82
2023/12/09 03:08:51;;;;;;;110.27;39.63;;;;;;;;;;10466761;28;20036;-82
2023/12/09 03:13:52;;;;;;;117.70;41.53;;;;;;;;;;10468214;28;20025;-81
2023/12/09 03:18:53;;;;;;;112.53;42.13;;;;;;;;;;10483746;28;20491;-82
2023/12/09 03:23:54;;;;;;;116.80;41.57;;;;;;;;;;10480168;28;20040;-82
2023/12/09 03:28:55;;;;;;;121.70;41.53;;;;;;;;;;10448592;28;20036;-83
2023/12/09 03:33:56;;;;;;;112.23;41.03;;;;;;;;;;10466411;28;20056;-82
2023/12/09 03:38:58;;;;;;;111.73;40.60;;;;;;;;;;10475105;28;20033;-81
2023/12/09 03:43:59;;;;;;;100.40;39.20;;;;;;;;;;10455556;28;20183;-82
2023/12/09 03:49:00;;;;;;;93.70;37.20;;;;;;;;;;10469963;28;20029;-82
2023/12/09 03:54:01;;;;;;;100.57;40.83;;;;;;;;;;10474599;28;20040;-82
2023/12/09 03:59:02;;;;;;;95.43;39.03;;;;;;;;;;10456418;28;20373;-83
2023/12/09 04:04:04;;;;;;;97.70;39.00;;;;;;;;;;10469242;28;20484;-81
2023/12/09 04:09:05;;;;;;;98.20;37.13;;;;;;;;;;10453704;28;20037;-82
2023/12/09 04:14:06;;;;;;;101.27;37.97;;;;;;;;;;10463798;28;20041;-82
2023/12/09 04:19:07;;;;;;;103.53;38.90;;;;;;;;;;10456230;28;20075;-83
2023/12/09 04:24:09;;;;;;;101.03;39.33;;;;;;;;;;10475376;28;20127;-82
2023/12/09 04:29:10;;;;;;;107.33;40.10;;;;;;;;;;10460039;28;20125;-82
2023/12/09 04:34:11;;;;;;;102.83;40.00;;;;;;;;;;10466010;28;20075;-82
2023/12/09 04:39:19;;;;;;;95.13;38.20;;;;;;;;;;10453171;28;20060;-82
2023/12/09 04:44:23;;;;;;;93.80;36.57;;;;;;;;;;10438150;28;20048;-82
2023/12/09 04:49:24;;;;;;;94.33;37.83;;;;;;;;;;10451825;28;20075;-82
2023/12/09 04:54:25;;;;;;;92.53;38.33;;;;;;;;;;10451003;28;20053;-82
2023/12/09 04:59:26;;;;;;;93.60;36.87;;;;;;;;;;10446503;28;20045;-81
2023/12/09 05:04:27;;;;;;;92.00;39.23;;;;;;;;;;10440100;28;20041;-83
2023/12/09 05:09:28;;;;;;;81.47;38.77;;;;;;;;;;10451182;28;20033;-81
2023/12/09 05:14:29;;;;;;;96.53;37.57;;;;;;;;;;10437416;28;20464;-81
2023/12/09 05:19:30;;;;;;;100.07;37.77;;;;;;;;;;10440462;28;20045;-83
2023/12/09 05:24:31;;;;;;;95.37;38.37;;;;;;;;;;10424009;28;20079;-83
2023/12/09 05:29:32;;;;;;;93.17;39.20;;;;;;;;;;10447280;28;20053;-83
2023/12/09 05:34:33;;;;;;;95.50;39.23;;;;;;;;;;10459028;28;20048;-82
2023/12/09 05:39:35;;;;;;;100.20;40.60;;;;;;;;;;10495271;28;20455;-81
2023/12/09 05:44:36;;;;;;;101.47;42.33;;;;;;;;;;10493285;28;20041;-81
2023/12/09 05:49:37;;;;;;;98.77;43.57;;;;;;;;;;10509305;28;20107;-82
2023/12/09 05:54:38;;;;;;;91.87;38.70;;;;;;;;;;10495972;28;20028;-81
2023/12/09 05:59:39;;;;;;;97.97;39.20;;;;;;;;;;10491894;28;20381;-82
2023/12/09 06:04:41;;;;;;;101.53;44.30;;;;;;;;;;10478113;28;20044;-82
2023/12/09 06:09:42;;;;;;;97.43;39.97;;;;;;;;;;10492765;28;20178;-82
2023/12/09 06:14:43;;;;;;;95.67;42.93;;;;;;;;;;10490353;28;20075;-82
2023/12/09 06:19:44;;;;;;;96.57;43.77;;;;;;;;;;10502027;28;20028;-82
2023/12/09 06:24:45;;;;;;;103.30;43.93;;;;;;;;;;10494100;28;20049;-82
2023/12/09 06:29:46;;;;;;;92.33;42.37;;;;;;;;;;10502285;28;20020;-81
2023/12/09 06:34:47;;;;;;;100.03;44.40;;;;;;;;;;10491972;28;20563;-81
2023/12/09 06:39:48;;;;;;;94.90;42.17;;;;;;;;;;10489289;28;20060;-82
2023/12/09 06:44:58;;;;;;;96.70;43.07;;;;;;;;;;10481071;28;20053;-82
2023/12/09 06:49:59;;;;;;;98.00;43.20;;;;;;;;;;10497231;28;20402;-82
2023/12/09 06:55:00;;;;;;;97.43;43.93;;;;;;;;;;10500907;28;20471;-82
2023/12/09 07:00:07;;;;;;;95.77;43.83;;;;;;;;;;10480312;28;20029;-81
2023/12/09 07:05:11;;;;;;;97.93;44.60;;;;;;;;;;10473217;28;20127;-82
2023/12/09 07:10:13;;;;;;;100.07;44.07;;;;;;;;;;10497017;28;20429;-82
2023/12/09 07:15:15;;;;;;;129.37;60.77;;;;;;;;;;10465121;28;20048;-83
2023/12/09 07:20:16;;;;;;;129.53;59.87;;;;;;;;;;10488165;28;20670;-82
2023/12/09 07:25:18;;;;;;;100.60;45.80;;;;;;;;;;10480309;28;20388;-82
2023/12/09 07:30:20;;;;;;;97.30;43.17;;;;;;;;;;10480072;28;20029;-81
2023/12/09 07:35:21;;;;;;;102.03;45.57;;;;;;;;;;10488079;28;20056;-83
2023/12/09 07:40:23;;;;;;;90.20;42.00;;;;;;;;;;10485338;28;20050;-81
2023/12/09 07:45:24;;;;;;;94.20;42.80;;;;;;;;;;10492970;28;20048;-83
2023/12/09 07:50:25;;;;;;;97.87;43.23;;;;;;;;;;10474155;28;20116;-82
2023/12/09 07:55:26;;;;;;;97.87;43.83;;;;;;;;;;10498254;28;20035;-81
2023/12/09 08:00:27;;;;;;;117.33;60.93;;;;;;;;;;10486704;28;20036;-82
2023/12/09 08:05:28;;;;;;;531.17;315.67;;;;;;;;;;10487286;28;20041;-81
2023/12/09 08:10:29;;;;;;;181.00;97.87;;;;;;;;;;10462518;28;20131;-81
2023/12/09 08:15:30;;;;;;;348.73;198.93;;;;;;;;;;10465801;28;20484;-83
2023/12/09 08:20:38;;;;;;;237.43;119.37;;;;;;;;;;10484486;28;20055;-82
2023/12/09 08:25:39;;;;;;;194.43;100.73;;;;;;;;;;10487469;28;20864;-82
2023/12/09 08:30:40;;;;;;;189.23;100.87;;;;;;;;;;10447278;28;20135;-82
2023/12/09 08:35:41;;;;;;;132.67;69.93;;;;;;;;;;10500887;28;20495;-82
2023/12/09 08:40:48;;;;;;;121.87;61.27;;;;;;;;;;10486218;28;20112;-82
2023/12/09 08:45:49;;;;;;;123.10;62.93;;;;;;;;;;10479264;28;20036;-83
2023/12/09 08:50:51;;;;;;;112.23;54.13;;;;;;;;;;10492239;28;20073;-83
2023/12/09 08:55:52;;;;;;;255.87;115.33;;;;;;;;;;10464796;28;20111;-81
2023/12/09 09:00:53;;;;;;;172.23;82.37;;;;;;;;;;10492024;28;20074;-82
2023/12/09 09:05:54;;;;;;;152.27;72.17;;;;;;;;;;10494775;28;20377;-84
2023/12/09 09:10:56;;;;;;;134.80;60.77;;;;;;;;;;10494699;28;20108;-80
2023/12/09 09:15:57;;;;;;;145.77;71.10;;;;;;;;;;10486673;28;20060;-82
2023/12/09 09:20:58;;;;;;;134.40;66.80;;;;;;;;;;10489535;28;20465;-81
2023/12/09 09:26:00;;;;;;;121.23;59.37;;;;;;;;;;10482823;28;20543;-81
2023/12/09 09:31:01;;;;;;;124.63;60.80;;;;;;;;;;10485251;28;20124;-81
2023/12/09 09:36:02;;;;;;;136.17;65.03;;;;;;;;;;10496413;28;20059;-80
2023/12/09 09:41:10;;;;;;;131.97;63.10;;;;;;;;;;10495953;28;20531;-81
2023/12/09 09:46:13;;;;;;;99.43;48.37;;;;;;;;;;10476144;28;20049;-81
2023/12/09 09:51:16;;;;;;;89.53;42.10;;;;;;;;;;10487213;28;20519;-80
2023/12/09 09:56:18;;;;;;;96.83;46.60;;;;;;;;;;10487563;28;20556;-80
2023/12/09 10:01:19;;;;;;;95.87;45.80;;;;;;;;;;10487846;28;20036;-81
2023/12/09 10:06:20;;;;;;;87.57;44.80;;;;;;;;;;10503835;28;20036;-79
2023/12/09 10:11:22;;;;;;;109.90;49.20;;;;;;;;;;10491367;28;20032;-80
2023/12/09 10:16:23;;;;;;;82.50;40.80;;;;;;;;;;10479107;28;20037;-80
2023/12/09 10:21:27;;;;;;;79.00;37.80;;;;;;;;;;10478367;28;20035;-80
2023/12/09 10:26:28;;;;;;;75.93;40.17;;;;;;;;;;10485098;28;20046;-80
2023/12/09 10:31:30;;;;;;;73.03;38.47;;;;;;;;;;10472717;28;20028;-79
2023/12/09 10:36:31;;;;;;;72.63;34.07;;;;;;;;;;10461471;28;20411;-79
2023/12/09 10:41:39;;;;;;;72.40;36.60;;;;;;;;;;10487477;28;20074;-80
2023/12/09 10:46:40;;;;;;;71.43;34.43;;;;;;;;;;10486742;28;20044;-80
2023/12/09 10:51:42;;;;;;;64.63;32.23;;;;;;;;;;10491814;28;20028;-80
2023/12/09 10:56:44;;;;;;;66.23;31.47;;;;;;;;;;10485427;28;20120;-80
2023/12/09 11:01:45;;;;;;;65.77;31.00;;;;;;;;;;10482197;28;20472;-80
2023/12/09 11:06:46;;;;;;;67.20;32.20;;;;;;;;;;10479592;28;20148;-79
2023/12/09 11:11:47;;;;;;;64.93;30.67;;;;;;;;;;10476133;28;20119;-79
2023/12/09 11:16:49;;;;;;;60.67;29.07;;;;;;;;;;10480969;28;20032;-79
2023/12/09 11:21:50;;;;;;;56.00;28.90;;;;;;;;;;10480288;28;20071;-80
2023/12/09 11:26:51;;;;;;;58.60;28.80;;;;;;;;;;10490895;28;20033;-80
2023/12/09 11:31:53;;;;;;;60.13;26.93;;;;;;;;;;10490884;28;20392;-80
2023/12/09 11:36:54;;;;;;;59.07;27.47;;;;;;;;;;10497515;28;20091;-79
2023/12/09 11:41:56;;;;;;;57.60;27.63;;;;;;;;;;10495113;28;20036;-80
2023/12/09 11:46:57;;;;;;;63.13;29.97;;;;;;;;;;10501517;28;20135;-80
2023/12/09 11:51:58;;;;;;;45.33;23.47;;;;;;;;;;10472630;28;20116;-80
2023/12/09 11:56:59;;;;;;;50.63;23.70;;;;;;;;;;10494945;28;20112;-80
2023/12/09 12:02:00;;;;;;;47.37;23.03;;;;;;;;;;10472330;28;20446;-81
2023/12/09 12:07:02;;;;;;;47.80;23.60;;;;;;;;;;10493584;28;20040;-81
2023/12/09 12:12:03;;;;;;;44.87;22.40;;;;;;;;;;10494957;28;20021;-81
2023/12/09 12:17:04;;;;;;;56.03;27.20;;;;;;;;;;10492736;28;20029;-81
2023/12/09 12:22:05;;;;;;;48.83;23.63;;;;;;;;;;10493240;28;20384;-82
2023/12/09 12:27:07;;;;;;;53.37;25.13;;;;;;;;;;10494808;28;20872;-82
2023/12/09 12:32:15;;;;;;;42.47;20.77;;;;;;;;;;10499541;28;20028;-82
2023/12/09 12:37:17;;;;;;;53.33;24.70;;;;;;;;;;10485523;28;20060;-83
2023/12/09 12:42:19;;;;;;;51.83;24.37;;;;;;;;;;10471420;28;20116;-82
2023/12/09 12:47:20;;;;;;;54.97;25.67;;;;;;;;;;10485355;28;20040;-82
2023/12/09 12:52:21;;;;;;;55.13;25.73;;;;;;;;;;10463720;28;20036;-81
2023/12/09 12:57:22;;;;;;;51.03;25.53;;;;;;;;;;10474477;28;20759;-81
2023/12/09 13:02:24;;;;;;;51.60;25.73;;;;;;;;;;10472103;28;20037;-81
2023/12/09 13:07:26;;;;;;;49.53;24.80;;;;;;;;;;10457936;28;20131;-83
2023/12/09 13:12:27;;;;;;;48.53;25.90;;;;;;;;;;10479964;28;20118;-82
2023/12/09 13:17:28;;;;;;;47.40;23.90;;;;;;;;;;10487705;28;20067;-81
2023/12/09 13:22:30;;;;;;;53.10;25.37;;;;;;;;;;10486808;28;20089;-81
2023/12/09 13:27:32;;;;;;;49.43;24.57;;;;;;;;;;10469491;28;20297;-80
2023/12/09 13:32:34;;;;;;;54.20;25.33;;;;;;;;;;10488218;28;20052;-82
2023/12/09 13:37:37;;;;;;;60.63;26.80;;;;;;;;;;10488455;28;20053;-79
2023/12/09 13:42:38;;;;;;;55.80;26.83;;;;;;;;;;10473940;28;20036;-80
2023/12/09 13:47:39;;;;;;;51.33;25.47;;;;;;;;;;10474225;28;20492;-80
2023/12/09 13:52:41;;;;;;;56.57;27.17;;;;;;;;;;10470637;28;20517;-81
2023/12/09 13:57:48;;;;;;;60.47;29.03;;;;;;;;;;10470632;28;20033;-79
2023/12/09 14:02:49;;;;;;;60.47;30.73;;;;;;;;;;10478873;28;20070;-79
2023/12/09 14:07:50;;;;;;;56.37;29.30;;;;;;;;;;10479743;28;20044;-80
2023/12/09 14:12:52;;;;;;;100.03;40.53;;;;;;;;;;10498103;28;20387;-79
2023/12/09 14:17:54;;;;;;;64.83;31.40;;;;;;;;;;10465988;28;20520;-80
2023/12/09 14:22:55;;;;;;;63.97;31.33;;;;;;;;;;10480102;28;20043;-81
2023/12/09 14:28:03;;;;;;;65.87;31.60;;;;;;;;;;10490614;28;20119;-81
2023/12/09 14:33:07;;;;;;;61.00;29.17;;;;;;;;;;10481675;28;20031;-80
2023/12/09 14:38:09;;;;;;;63.40;29.33;;;;;;;;;;10485720;28;20060;-81
2023/12/09 14:43:11;;;;;;;59.60;30.27;;;;;;;;;;10486564;28;20392;-81
2023/12/09 14:48:13;;;;;;;105.53;56.53;;;;;;;;;;10465974;28;20041;-81
2023/12/09 14:53:17;;;;;;;126.43;56.73;;;;;;;;;;10485578;28;20064;-81
2023/12/09 14:58:18;;;;;;;71.27;35.90;;;;;;;;;;10483534;28;20124;-81
2023/12/09 15:03:19;;;;;;;64.43;32.20;;;;;;;;;;10486165;28;20059;-81
2023/12/09 15:08:21;;;;;;;63.77;31.23;;;;;;;;;;10488575;28;20052;-81
2023/12/09 15:13:22;;;;;;;64.60;32.13;;;;;;;;;;10481555;28;20029;-82
2023/12/09 15:18:23;;;;;;;66.70;32.70;;;;;;;;;;10470858;28;20104;-82
2023/12/09 15:23:24;;;;;;;69.37;33.00;;;;;;;;;;10475638;28;20148;-81
2023/12/09 15:28:27;;;;;;;70.20;35.30;;;;;;;;;;10489860;28;20027;-81
2023/12/09 15:33:28;;;;;;;69.27;33.47;;;;;;;;;;10458205;28;20032;-81
2023/12/09 15:38:29;;;;;;;71.17;34.97;;;;;;;;;;10481973;28;20076;-81
2023/12/09 15:43:30;;;;;;;72.70;37.03;;;;;;;;;;10481579;28;20036;-82
2023/12/09 15:48:31;;;;;;;72.97;34.33;;;;;;;;;;10485315;28;20047;-82
2023/12/09 15:53:36;;;;;;;79.67;38.50;;;;;;;;;;10473693;28;20096;-81
2023/12/09 15:58:38;;;;;;;83.63;41.47;;;;;;;;;;10463833;28;20067;-82
2023/12/09 16:03:41;;;;;;;90.33;42.67;;;;;;;;;;10479734;28;20036;-84
2023/12/09 16:08:42;;;;;;;85.90;42.77;;;;;;;;;;10475867;28;20029;-82
2023/12/09 16:13:43;;;;;;;99.03;46.27;;;;;;;;;;10485027;28;20078;-82
2023/12/09 16:18:44;;;;;;;82.13;39.70;;;;;;;;;;10481103;28;20143;-82
2023/12/09 16:23:45;;;;;;;83.67;41.60;;;;;;;;;;10496271;28;20040;-80
2023/12/09 16:28:46;;;;;;;86.43;39.77;;;;;;;;;;10492165;28;20213;-80
2023/12/09 16:33:48;;;;;;;88.97;42.70;;;;;;;;;;10508533;28;20051;-82
2023/12/09 16:38:55;;;;;;;80.87;37.63;;;;;;;;;;10453689;28;20044;-82
2023/12/09 16:44:03;;;;;;;88.03;38.90;;;;;;;;;;10431509;28;20071;-81
2023/12/09 16:49:04;;;;;;;75.30;35.13;;;;;;;;;;10441436;28;20110;-81
2023/12/09 16:54:05;;;;;;;74.90;36.13;;;;;;;;;;10432413;28;20025;-81
2023/12/09 16:59:10;;;;;;;86.40;38.30;;;;;;;;;;10436406;28;20040;-81
2023/12/09 17:04:11;;;;;;;68.50;31.63;;;;;;;;;;10438472;28;20535;-80
2023/12/09 17:09:13;;;;;;;77.70;33.90;;;;;;;;;;10444322;28;20037;-81
2023/12/09 17:14:14;;;;;;;70.73;31.83;;;;;;;;;;10450062;28;20083;-81
2023/12/09 17:19:15;;;;;;;79.47;34.53;;;;;;;;;;10429944;28;20120;-81
2023/12/09 17:24:19;;;;;;;395.10;249.97;;;;;;;;;;10432765;28;20548;-82
2023/12/09 17:29:20;;;;;;;115.73;51.67;;;;;;;;;;10440727;28;20037;-80
2023/12/09 17:34:21;;;;;;;109.27;49.77;;;;;;;;;;10447529;28;20112;-79
2023/12/09 17:39:23;;;;;;;98.13;44.97;;;;;;;;;;10431287;28;20081;-81
2023/12/09 17:44:24;;;;;;;89.67;41.33;;;;;;;;;;10418672;28;20497;-80
2023/12/09 17:49:25;;;;;;;86.83;37.90;;;;;;;;;;10445944;28;20056;-81
2023/12/09 17:54:27;;;;;;;91.80;42.70;;;;;;;;;;10427310;28;20401;-83
2023/12/09 17:59:28;;;;;;;86.47;38.37;;;;;;;;;;10436028;28;20487;-82
2023/12/09 18:04:29;;;;;;;88.40;40.10;;;;;;;;;;10442144;28;20045;-82
2023/12/09 18:09:30;;;;;;;97.20;45.47;;;;;;;;;;10435418;28;20044;-82
2023/12/09 18:14:32;;;;;;;110.87;52.33;;;;;;;;;;10426800;28;20067;-82
2023/12/09 18:19:55;;;;;;;96.40;45.47;;;;;;;;;;10419842;28;20029;-83
2023/12/09 18:24:55;;;;;;;99.80;47.50;;;;;;;;;;10438024;28;20048;-79
2023/12/09 18:29:56;;;;;;;104.13;49.33;;;;;;;;;;10440600;28;20013;-81
2023/12/09 18:34:57;;;;;;;102.70;49.97;;;;;;;;;;10433579;28;20053;-80
2023/12/09 18:39:58;;;;;;;152.77;72.70;;;;;;;;;;10432049;28;20084;-80
2023/12/09 18:44:59;;;;;;;190.80;84.43;;;;;;;;;;10433450;28;20037;-80
2023/12/09 18:50:01;;;;;;;190.77;86.70;;;;;;;;;;10438198;28;20086;-80
2023/12/09 18:55:02;;;;;;;174.57;81.37;;;;;;;;;;10433976;28;20855;-80
2023/12/09 19:00:04;;;;;;;142.27;68.30;;;;;;;;;;10444195;28;20393;-82
2023/12/09 19:05:05;;;;;;;167.57;80.30;;;;;;;;;;10431921;28;20576;-80
2023/12/09 19:10:06;;;;;;;144.67;68.23;;;;;;;;;;10416515;28;20059;-80
2023/12/09 19:15:08;;;;;;;158.90;76.30;;;;;;;;;;10436681;28;20028;-80
2023/12/09 19:20:09;;;;;;;164.87;75.47;;;;;;;;;;10431837;28;20029;-79
2023/12/09 19:25:10;;;;;;;139.07;67.43;;;;;;;;;;10433790;28;20075;-79
2023/12/09 19:30:13;;;;;;;153.27;69.87;;;;;;;;;;10429582;28;20121;-80
2023/12/09 19:35:14;;;;;;;166.47;79.13;;;;;;;;;;10429608;28;20057;-81
2023/12/09 19:40:16;;;;;;;269.50;130.23;;;;;;;;;;10427070;28;20077;-80
2023/12/09 19:45:17;;;;;;;246.90;110.23;;;;;;;;;;10427654;28;20102;-81
2023/12/09 19:50:18;;;;;;;161.93;79.47;;;;;;;;;;10435370;28;20130;-81
2023/12/09 19:55:26;;;;;;;157.73;74.43;;;;;;;;;;10442594;28;20057;-81
2023/12/09 20:00:28;;;;;;;148.70;69.37;;;;;;;;;;10443081;28;20067;-81
2023/12/09 20:05:29;;;;;;;139.60;63.87;;;;;;;;;;10435178;28;20091;-80
2023/12/09 20:10:30;;;;;;;126.93;57.83;;;;;;;;;;10442869;28;20048;-80
2023/12/09 20:15:31;;;;;;;145.83;66.30;;;;;;;;;;10439735;28;20115;-81
2023/12/09 20:20:32;;;;;;;142.00;68.20;;;;;;;;;;10436191;28;20368;-80
2023/12/09 20:25:40;;;;;;;140.80;65.53;;;;;;;;;;10438989;28;20480;-80
2023/12/09 20:30:41;;;;;;;139.60;60.50;;;;;;;;;;10429105;28;20033;-80
2023/12/09 20:35:42;;;;;;;155.00;68.83;;;;;;;;;;10440791;28;20436;-80
2023/12/09 20:40:50;;;;;;;143.03;66.60;;;;;;;;;;10463610;28;20033;-81
2023/12/09 20:45:51;;;;;;;161.73;70.77;;;;;;;;;;10461470;28;20131;-81
2023/12/09 20:50:53;;;;;;;162.43;74.63;;;;;;;;;;10459425;28;20048;-80
2023/12/09 20:55:54;;;;;;;143.57;66.97;;;;;;;;;;10454516;28;20029;-80
2023/12/09 21:00:55;;;;;;;136.13;66.90;;;;;;;;;;10442453;28;20032;-80
2023/12/09 21:05:56;;;;;;;145.70;64.57;;;;;;;;;;10469076;28;20041;-81
2023/12/09 21:10:58;;;;;;;153.23;69.43;;;;;;;;;;10465966;28;20064;-82
2023/12/09 21:15:59;;;;;;;149.30;65.50;;;;;;;;;;10459291;28;20059;-82
2023/12/09 21:21:00;;;;;;;153.40;65.33;;;;;;;;;;10472512;28;20587;-83
2023/12/09 21:26:02;;;;;;;146.37;65.30;;;;;;;;;;10474507;28;20618;-81
2023/12/09 21:31:03;;;;;;;194.63;90.73;;;;;;;;;;10454477;28;20032;-81
2023/12/09 21:36:11;;;;;;;188.77;83.40;;;;;;;;;;10466752;28;20059;-81
2023/12/09 21:41:19;;;;;;;180.10;79.33;;;;;;;;;;10446881;28;20061;-80
2023/12/09 21:46:21;;;;;;;175.63;75.70;;;;;;;;;;10433401;28;20038;-82
2023/12/09 21:51:22;;;;;;;166.27;71.93;;;;;;;;;;10442455;28;20151;-81
2023/12/09 21:56:24;;;;;;;176.60;85.93;;;;;;;;;;10445874;28;20480;-81
2023/12/09 22:01:25;;;;;;;163.93;71.87;;;;;;;;;;10433054;28;20037;-81
2023/12/09 22:06:26;;;;;;;158.10;74.87;;;;;;;;;;10418798;28;20041;-81
2023/12/09 22:11:29;;;;;;;166.43;71.93;;;;;;;;;;10437546;28;20088;-81
2023/12/09 22:16:30;;;;;;;173.83;75.13;;;;;;;;;;10422506;28;20036;-81
2023/12/09 22:21:31;;;;;;;207.67;88.00;;;;;;;;;;10439682;28;20030;-81
2023/12/09 22:26:32;;;;;;;216.90;93.20;;;;;;;;;;10434189;28;20150;-81
2023/12/09 22:31:34;;;;;;;225.03;99.33;;;;;;;;;;10429460;28;20033;-82
2023/12/09 22:36:35;;;;;;;243.70;105.97;;;;;;;;;;10451094;28;20047;-81
2023/12/09 22:41:36;;;;;;;244.90;100.13;;;;;;;;;;10464953;28;20028;-81
2023/12/09 22:46:37;;;;;;;220.50;93.80;;;;;;;;;;10474989;28;20134;-81
2023/12/09 22:51:38;;;;;;;187.50;86.63;;;;;;;;;;10464780;28;20063;-81
2023/12/09 22:56:39;;;;;;;217.57;95.57;;;;;;;;;;10441392;28;20120;-82
2023/12/09 23:01:40;;;;;;;203.23;91.27;;;;;;;;;;10458716;28;20064;-81
2023/12/09 23:06:42;;;;;;;189.70;88.83;;;;;;;;;;10474572;28;20221;-82
2023/12/09 23:11:45;;;;;;;188.97;87.60;;;;;;;;;;10452749;28;20056;-82
2023/12/09 23:16:46;;;;;;;183.90;82.97;;;;;;;;;;10440960;28;20085;-82
2023/12/09 23:21:47;;;;;;;183.27;84.80;;;;;;;;;;10469493;28;20080;-82
2023/12/09 23:26:48;;;;;;;178.87;85.73;;;;;;;;;;10465952;28;20473;-82
2023/12/09 23:31:49;;;;;;;194.40;86.77;;;;;;;;;;10459680;28;20086;-82
2023/12/09 23:36:51;;;;;;;203.10;91.47;;;;;;;;;;10446823;28;20085;-81
2023/12/09 23:41:52;;;;;;;176.60;82.37;;;;;;;;;;10470455;28;20078;-80
2023/12/09 23:46:53;;;;;;;268.70;108.50;;;;;;;;;;10461087;28;20498;-80
2023/12/09 23:51:54;;;;;;;211.00;90.93;;;;;;;;;;10451649;28;20036;-82
2023/12/09 23:56:57;;;;;;;171.80;80.13;;;;;;;;;;10459681;28;20086;-81
